createdAt,value
2022-10-17T00:01:10.633Z,14.60
2022-10-17T00:03:40.309Z,14.60
2022-10-17T00:06:12.608Z,14.40
2022-10-17T00:08:41.535Z,14.50
2022-10-17T00:11:18.754Z,14.70
2022-10-17T00:13:48.261Z,14.80
2022-10-17T00:16:24.161Z,15.60
2022-10-17T00:18:52.521Z,16.00
2022-10-17T00:21:22.011Z,16.00
2022-10-17T00:23:50.949Z,16.40
2022-10-17T00:26:19.592Z,14.80
2022-10-17T00:28:49.001Z,14.60
2022-10-17T00:31:19.119Z,15.00
2022-10-17T00:33:47.930Z,14.80
2022-10-17T00:36:22.832Z,13.90
2022-10-17T00:38:54.422Z,14.60
2022-10-17T00:41:30.127Z,15.30
2022-10-17T00:44:01.795Z,15.70
2022-10-17T00:46:35.649Z,14.70
2022-10-17T00:49:08.292Z,15.40
2022-10-17T00:51:59.083Z,14.80
2022-10-17T00:54:53.994Z,14.70
2022-10-17T00:57:22.461Z,14.40
2022-10-17T00:59:54.807Z,13.40
2022-10-17T01:02:24.659Z,12.40
2022-10-17T01:04:55.847Z,14.00
2022-10-17T01:07:23.992Z,13.30
2022-10-17T01:09:52.319Z,15.20
2022-10-17T01:12:27.485Z,14.70
2022-10-17T01:15:14.495Z,15.20
2022-10-17T01:18:01.377Z,15.20
2022-10-17T01:20:48.322Z,14.00
2022-10-17T01:23:44.245Z,14.70
2022-10-17T01:26:31.333Z,13.70
2022-10-17T01:29:18.322Z,13.60
2022-10-17T01:31:59.481Z,15.00
2022-10-17T01:34:36.076Z,14.00
2022-10-17T01:37:07.017Z,14.80
2022-10-17T01:39:59.075Z,15.00
2022-10-17T01:42:33.075Z,15.20
2022-10-17T01:45:11.775Z,14.70
2022-10-17T01:47:42.177Z,15.10
2022-10-17T01:50:31.450Z,14.70
2022-10-17T01:53:08.734Z,13.50
2022-10-17T01:55:41.140Z,14.70
2022-10-17T01:58:32.415Z,13.50
2022-10-17T02:05:41.523Z,12.50
2022-10-17T02:08:11.774Z,14.30
2022-10-17T02:10:46.771Z,14.20
2022-10-17T02:13:30.021Z,14.40
2022-10-17T02:16:16.487Z,15.80
2022-10-17T02:19:12.784Z,14.50
2022-10-17T02:21:55.660Z,14.20
2022-10-17T02:24:42.355Z,14.20
2022-10-17T02:27:16.634Z,13.70
2022-10-17T02:29:50.443Z,13.50
2022-10-17T02:32:28.254Z,13.40
2022-10-17T02:34:58.464Z,12.80
2022-10-17T02:37:30.692Z,14.90
2022-10-17T02:40:01.257Z,15.10
2022-10-17T02:42:31.236Z,15.30
2022-10-17T02:45:01.450Z,15.50
2022-10-17T02:47:36.758Z,15.10
2022-10-17T02:50:05.406Z,13.90
2022-10-17T02:52:52.511Z,15.00
2022-10-17T02:55:33.705Z,14.00
2022-10-17T02:58:11.861Z,13.30
2022-10-17T03:00:41.257Z,12.30
2022-10-17T03:03:21.624Z,13.10
2022-10-17T03:05:49.876Z,13.90
2022-10-17T03:08:18.629Z,14.70
2022-10-17T03:10:46.870Z,14.40
2022-10-17T03:13:15.912Z,14.90
2022-10-17T03:15:44.073Z,13.40
2022-10-17T03:18:12.364Z,14.80
2022-10-17T03:20:40.346Z,13.70
2022-10-17T03:23:08.460Z,12.40
2022-10-17T03:25:37.588Z,11.80
2022-10-17T03:28:06.428Z,10.60
2022-10-17T03:30:34.590Z,10.30
2022-10-17T03:33:02.581Z,12.80
2022-10-17T03:35:30.645Z,11.90
2022-10-17T03:38:00.046Z,13.50
2022-10-17T03:40:28.339Z,13.10
2022-10-17T03:42:57.243Z,13.80
2022-10-17T03:45:25.426Z,12.80
2022-10-17T03:47:54.078Z,12.10
2022-10-17T03:50:22.127Z,13.40
2022-10-17T03:52:50.338Z,13.10
2022-10-17T03:55:18.410Z,12.10
2022-10-17T03:57:47.081Z,11.90
2022-10-17T04:00:15.833Z,12.50
2022-10-17T04:02:45.054Z,12.40
2022-10-17T04:05:18.137Z,13.40
2022-10-17T04:07:47.326Z,12.50
2022-10-17T04:10:16.201Z,12.70
2022-10-17T04:12:44.641Z,12.80
2022-10-17T04:15:13.207Z,13.60
2022-10-17T04:17:41.535Z,11.80
2022-10-17T04:20:10.665Z,12.20
2022-10-17T04:22:38.765Z,10.80
2022-10-17T04:25:06.994Z,10.30
2022-10-17T04:27:37.566Z,11.70
2022-10-17T04:30:05.999Z,12.20
2022-10-17T04:32:39.196Z,13.20
2022-10-17T04:35:21.137Z,12.40
2022-10-17T04:37:53.187Z,13.40
2022-10-17T04:40:21.709Z,12.50
2022-10-17T04:42:50.224Z,11.90
2022-10-17T04:45:20.527Z,12.10
2022-10-17T04:47:49.450Z,12.30
2022-10-17T04:50:17.480Z,11.70
2022-10-17T04:53:01.577Z,11.50
2022-10-17T04:55:29.592Z,12.30
2022-10-17T04:57:58.032Z,13.00
2022-10-17T05:00:26.317Z,12.30
2022-10-17T05:03:02.180Z,12.70
2022-10-17T05:05:31.046Z,10.90
2022-10-17T05:07:59.209Z,13.70
2022-10-17T05:10:37.232Z,14.00
2022-10-17T05:13:06.273Z,13.10
2022-10-17T05:15:35.393Z,11.30
2022-10-17T05:18:04.822Z,11.60
2022-10-17T05:20:33.430Z,11.20
2022-10-17T05:23:02.274Z,11.30
2022-10-17T05:25:34.662Z,12.20
2022-10-17T05:28:02.728Z,12.00
2022-10-17T05:30:35.179Z,12.50
2022-10-17T05:33:06.277Z,13.50
2022-10-17T05:35:35.339Z,13.40
2022-10-17T05:38:03.526Z,13.90
2022-10-17T05:40:32.323Z,13.60
2022-10-17T05:43:00.424Z,13.10
2022-10-17T05:45:28.492Z,13.40
2022-10-17T05:47:57.662Z,14.10
2022-10-17T05:50:25.917Z,13.10
2022-10-17T05:53:04.069Z,12.40
2022-10-17T05:55:33.259Z,11.90
2022-10-17T05:58:01.985Z,12.70
2022-10-17T06:00:33.366Z,12.90
2022-10-17T06:03:02.230Z,13.20
2022-10-17T06:05:30.448Z,14.20
2022-10-17T06:08:01.822Z,14.60
2022-10-17T06:10:32.009Z,14.40
2022-10-17T06:13:00.668Z,15.40
2022-10-17T06:15:28.789Z,13.20
2022-10-17T06:18:02.654Z,13.10
2022-10-17T06:20:30.613Z,12.80
2022-10-17T06:22:59.626Z,12.10
2022-10-17T06:25:43.736Z,13.10
2022-10-17T06:28:12.839Z,13.90
2022-10-17T06:30:41.598Z,13.20
2022-10-17T06:33:10.047Z,13.20
2022-10-17T06:35:38.123Z,12.90
2022-10-17T06:38:06.571Z,14.00
2022-10-17T06:40:36.132Z,12.90
2022-10-17T06:43:04.116Z,12.70
2022-10-17T06:48:35.382Z,11.30
2022-10-17T06:51:15.424Z,12.80
2022-10-17T06:53:50.485Z,12.50
2022-10-17T06:56:51.101Z,12.10
2022-10-17T06:59:28.156Z,12.80
2022-10-17T07:02:02.968Z,12.40
2022-10-17T07:04:31.592Z,13.70
2022-10-17T07:07:03.101Z,13.00
2022-10-17T07:09:33.074Z,12.70
2022-10-17T07:12:01.092Z,11.70
2022-10-17T07:14:32.195Z,11.60
2022-10-17T07:17:02.217Z,12.80
2022-10-17T07:19:33.110Z,12.60
2022-10-17T07:22:01.076Z,12.80
2022-10-17T07:24:29.465Z,12.30
2022-10-17T07:27:15.964Z,12.00
2022-10-17T07:29:44.042Z,12.40
2022-10-17T07:32:18.969Z,12.10
2022-10-17T07:34:47.055Z,11.40
2022-10-17T07:37:15.255Z,10.90
2022-10-17T07:39:49.605Z,12.20
2022-10-17T07:42:17.703Z,13.00
2022-10-17T07:44:47.551Z,12.80
2022-10-17T07:47:16.137Z,12.30
2022-10-17T07:49:46.752Z,11.80
2022-10-17T07:52:15.924Z,12.70
2022-10-17T07:54:44.367Z,12.10
2022-10-17T07:57:13.362Z,12.60
2022-10-17T07:59:41.401Z,11.40
2022-10-17T08:02:20.683Z,11.60
2022-10-17T08:04:48.656Z,11.60
2022-10-17T08:07:23.254Z,11.40
2022-10-17T08:09:53.560Z,11.40
2022-10-17T08:12:22.062Z,12.60
2022-10-17T08:14:50.332Z,12.10
2022-10-17T08:17:18.464Z,12.30
2022-10-17T08:19:46.734Z,11.50
2022-10-17T08:22:14.742Z,11.30
2022-10-17T08:24:43.005Z,11.60
2022-10-17T08:27:13.515Z,11.30
2022-10-17T08:29:41.456Z,13.50
2022-10-17T08:32:10.201Z,12.10
2022-10-17T08:34:38.932Z,12.30
2022-10-17T08:37:06.938Z,12.40
2022-10-17T08:39:34.998Z,11.60
2022-10-17T08:42:09.109Z,12.10
2022-10-17T08:44:57.791Z,12.20
2022-10-17T08:47:35.733Z,12.60
2022-10-17T08:50:07.131Z,12.40
2022-10-17T08:52:54.225Z,11.80
2022-10-17T08:55:45.310Z,11.60
2022-10-17T08:58:35.591Z,10.60
2022-10-17T09:01:19.831Z,12.50
2022-10-17T09:04:14.856Z,12.40
2022-10-17T09:07:09.137Z,11.80
2022-10-17T09:09:40.364Z,12.10
2022-10-17T09:12:29.584Z,11.40
2022-10-17T09:15:29.722Z,10.80
2022-10-17T09:18:05.626Z,13.00
2022-10-17T09:20:51.846Z,12.00
2022-10-17T09:23:30.397Z,11.70
2022-10-17T09:26:01.289Z,12.10
2022-10-17T09:31:19.048Z,11.60
2022-10-17T09:33:54.395Z,12.10
2022-10-17T09:36:28.192Z,12.00
2022-10-17T09:38:59.918Z,11.50
2022-10-17T09:41:46.624Z,12.20
2022-10-17T09:44:17.365Z,12.60
2022-10-17T09:47:13.355Z,12.10
2022-10-17T09:49:47.801Z,11.90
2022-10-17T09:52:32.139Z,11.60
2022-10-17T09:55:11.890Z,12.30
2022-10-17T09:57:59.883Z,11.70
2022-10-17T10:00:30.257Z,12.60
2022-10-17T10:03:13.991Z,12.30
2022-10-17T10:05:43.677Z,12.90
2022-10-17T10:08:22.812Z,12.80
2022-10-17T10:10:58.850Z,12.90
2022-10-17T10:13:27.490Z,12.70
2022-10-17T10:16:14.617Z,12.60
2022-10-17T10:18:45.466Z,13.30
2022-10-17T10:21:24.489Z,11.80
2022-10-17T10:24:12.506Z,11.70
2022-10-17T10:26:45.266Z,12.90
2022-10-17T10:29:22.583Z,13.00
2022-10-17T10:31:54.104Z,13.50
2022-10-17T10:34:31.351Z,12.90
2022-10-17T10:37:17.462Z,13.10
2022-10-17T10:39:53.082Z,12.50
2022-10-17T10:42:23.391Z,12.80
2022-10-17T10:44:53.967Z,12.50
2022-10-17T10:47:27.224Z,11.60
2022-10-17T10:50:21.324Z,13.20
2022-10-17T10:53:21.750Z,12.90
2022-10-17T10:56:00.994Z,10.90
2022-10-17T10:58:47.515Z,11.70
2022-10-17T11:01:27.991Z,12.70
2022-10-17T11:04:33.438Z,12.50
2022-10-17T11:07:34.589Z,10.80
2022-10-17T11:10:30.872Z,10.80
2022-10-17T11:13:26.545Z,11.80
2022-10-17T11:16:16.459Z,11.10
2022-10-17T11:18:55.137Z,11.40
2022-10-17T11:21:57.066Z,11.50
2022-10-17T11:24:30.040Z,11.00
2022-10-17T11:27:05.086Z,10.70
2022-10-17T11:29:36.821Z,10.80
2022-10-17T11:32:21.244Z,11.20
2022-10-17T11:34:53.665Z,10.90
2022-10-17T11:37:27.885Z,11.60
2022-10-17T11:40:02.400Z,10.50
2022-10-17T11:42:36.288Z,10.70
2022-10-17T11:45:20.223Z,11.00
2022-10-17T11:47:59.001Z,10.20
2022-10-17T11:53:31.456Z,10.10
2022-10-17T11:56:02.052Z,9.50
2022-10-17T11:58:33.102Z,10.00
2022-10-17T12:01:33.760Z,9.80
2022-10-17T12:04:14.223Z,10.10
2022-10-17T12:09:32.476Z,9.40
2022-10-17T12:12:02.786Z,9.90
2022-10-17T12:14:34.386Z,9.70
2022-10-17T12:17:03.910Z,11.20
2022-10-17T12:19:38.312Z,9.50
2022-10-17T12:22:19.601Z,9.50
2022-10-17T12:27:36.162Z,9.30
2022-10-17T12:30:11.916Z,10.00
2022-10-17T12:33:07.084Z,10.30
2022-10-17T12:35:38.456Z,9.00
2022-10-17T12:38:18.950Z,9.40
2022-10-17T12:40:53.044Z,9.30
2022-10-17T12:43:30.089Z,9.90
2022-10-17T12:46:03.203Z,10.50
2022-10-17T12:48:34.603Z,9.50
2022-10-17T12:51:34.341Z,10.40
2022-10-17T12:54:02.648Z,10.00
2022-10-17T12:56:38.636Z,9.30
2022-10-17T12:59:25.572Z,10.60
2022-10-17T13:02:00.049Z,9.40
2022-10-17T13:04:30.992Z,9.40
2022-10-17T13:09:32.579Z,10.10
2022-10-17T13:12:05.627Z,10.40
2022-10-17T13:14:34.246Z,10.50
2022-10-17T13:17:05.579Z,10.60
2022-10-17T13:19:45.096Z,9.70
2022-10-17T13:22:18.181Z,10.50
2022-10-17T13:24:46.854Z,10.00
2022-10-17T13:27:25.571Z,10.00
2022-10-17T13:29:56.515Z,9.30
2022-10-17T13:32:27.171Z,10.70
2022-10-17T13:37:37.137Z,9.40
2022-10-17T13:40:22.968Z,10.80
2022-10-17T13:42:57.414Z,10.60
2022-10-17T13:45:29.403Z,9.90
2022-10-17T13:48:05.079Z,10.10
2022-10-17T13:50:45.038Z,9.80
2022-10-17T13:53:19.559Z,10.50
2022-10-17T13:56:15.773Z,9.40
2022-10-17T13:58:46.893Z,10.30
2022-10-17T14:01:15.801Z,10.30
2022-10-17T14:03:48.772Z,9.60
2022-10-17T14:06:30.092Z,10.40
2022-10-17T14:09:07.672Z,10.30
2022-10-17T14:11:41.993Z,10.00
2022-10-17T14:14:26.464Z,10.00
2022-10-17T14:16:55.194Z,10.10
2022-10-17T14:19:34.154Z,10.70
2022-10-17T14:22:20.807Z,9.50
2022-10-17T14:24:50.945Z,11.10
2022-10-17T14:27:42.571Z,10.60
2022-10-17T14:30:51.578Z,9.10
2022-10-17T14:33:19.187Z,8.60
2022-10-17T14:35:55.850Z,9.10
2022-10-17T14:38:25.096Z,10.50
2022-10-17T14:41:29.644Z,10.00
2022-10-17T14:44:03.603Z,10.10
2022-10-17T14:46:32.037Z,9.80
2022-10-17T14:49:14.834Z,9.80
2022-10-17T14:52:28.493Z,10.50
2022-10-17T14:54:58.378Z,10.60
2022-10-17T14:57:34.499Z,10.40
2022-10-17T15:00:03.571Z,8.70
2022-10-17T15:02:32.241Z,9.70
2022-10-17T15:05:00.444Z,9.80
2022-10-17T15:07:29.637Z,10.40
2022-10-17T15:09:57.638Z,10.30
2022-10-17T15:12:26.079Z,10.00
2022-10-17T15:14:54.545Z,9.60
2022-10-17T15:17:26.612Z,8.80
2022-10-17T15:19:55.639Z,8.50
2022-10-17T15:22:24.236Z,9.60
2022-10-17T15:24:52.435Z,9.80
2022-10-17T15:27:22.879Z,9.20
2022-10-17T15:29:53.188Z,9.80
2022-10-17T15:32:21.269Z,9.00
2022-10-17T15:34:49.517Z,8.90
2022-10-17T15:37:22.075Z,9.70
2022-10-17T15:39:54.721Z,9.20
2022-10-17T15:42:28.307Z,10.10
2022-10-17T15:44:57.507Z,9.70
2022-10-17T15:47:31.481Z,10.90
2022-10-17T15:50:01.297Z,10.70
2022-10-17T15:52:29.655Z,9.80
2022-10-17T15:54:59.711Z,10.10
2022-10-17T15:57:34.466Z,9.60
2022-10-17T16:00:02.581Z,9.50
2022-10-17T16:02:37.649Z,10.70
2022-10-17T16:05:23.543Z,10.10
2022-10-17T16:07:56.028Z,9.40
2022-10-17T16:10:25.547Z,8.90
2022-10-17T16:12:53.954Z,8.80
2022-10-17T16:15:28.066Z,9.70
2022-10-17T16:18:00.452Z,9.30
2022-10-17T16:20:31.851Z,10.20
2022-10-17T16:23:02.982Z,10.70
2022-10-17T16:25:32.624Z,10.80
2022-10-17T16:28:00.892Z,10.40
2022-10-17T16:30:31.083Z,9.50
2022-10-17T16:32:59.134Z,10.50
2022-10-17T16:35:33.304Z,9.80
2022-10-17T16:38:06.329Z,9.40
2022-10-17T16:40:34.467Z,9.40
2022-10-17T16:43:02.524Z,10.00
2022-10-17T16:45:30.892Z,9.60
2022-10-17T16:47:58.987Z,10.80
2022-10-17T16:50:27.087Z,10.40
2022-10-17T16:52:55.168Z,10.10
2022-10-17T16:55:23.240Z,10.80
2022-10-17T16:57:52.010Z,9.90
2022-10-17T17:00:20.441Z,9.90
2022-10-17T17:02:48.906Z,9.70
2022-10-17T17:05:17.015Z,10.40
2022-10-17T17:07:45.620Z,10.60
2022-10-17T17:10:13.583Z,10.20
2022-10-17T17:12:41.526Z,10.50
2022-10-17T17:15:09.660Z,9.90
2022-10-17T17:17:49.632Z,10.30
2022-10-17T17:20:21.938Z,10.40
2022-10-17T17:22:50.896Z,10.90
2022-10-17T17:25:19.114Z,10.10
2022-10-17T17:27:47.262Z,11.30
2022-10-17T17:30:15.783Z,10.10
2022-10-17T17:32:46.767Z,10.80
2022-10-17T17:35:15.022Z,10.50
2022-10-17T17:37:43.168Z,10.60
2022-10-17T17:40:11.635Z,10.70
2022-10-17T17:42:39.998Z,10.40
2022-10-17T17:45:08.636Z,10.80
2022-10-17T17:47:36.589Z,10.50
2022-10-17T17:50:05.515Z,10.10
2022-10-17T17:52:33.544Z,10.60
2022-10-17T17:55:01.739Z,10.10
2022-10-17T17:57:30.391Z,9.90
2022-10-17T17:59:58.574Z,10.00
2022-10-17T18:02:26.696Z,11.10
2022-10-17T18:04:55.515Z,11.00
2022-10-17T18:07:24.222Z,11.10
2022-10-17T18:09:52.351Z,11.20
2022-10-17T18:12:20.862Z,10.80
2022-10-17T18:14:49.111Z,11.10
2022-10-17T18:17:17.107Z,10.70
2022-10-17T18:19:45.169Z,11.10
2022-10-17T18:22:13.235Z,11.00
2022-10-17T18:24:41.529Z,11.10
2022-10-17T18:27:09.679Z,10.40
2022-10-17T18:29:37.606Z,10.90
2022-10-17T18:32:05.805Z,9.90
2022-10-17T18:34:33.871Z,11.60
2022-10-17T18:37:02.717Z,11.70
2022-10-17T18:39:30.669Z,12.00
2022-10-17T18:41:58.961Z,11.20
2022-10-17T18:44:27.203Z,10.70
2022-10-17T18:46:58.550Z,11.30
2022-10-17T18:49:29.867Z,11.70
2022-10-17T18:51:59.707Z,12.80
2022-10-17T18:54:29.311Z,12.30
2022-10-17T18:56:57.698Z,12.70
2022-10-17T18:59:25.826Z,13.00
2022-10-17T19:01:53.910Z,12.40
2022-10-17T19:04:22.890Z,12.00
2022-10-17T19:06:50.866Z,13.10
2022-10-17T19:09:19.351Z,13.00
2022-10-17T19:11:47.533Z,13.00
2022-10-17T19:14:15.859Z,11.70
2022-10-17T19:16:49.822Z,13.00
2022-10-17T19:19:25.514Z,12.30
2022-10-17T19:21:53.769Z,12.30
2022-10-17T19:24:25.232Z,13.50
2022-10-17T19:26:55.806Z,13.10
2022-10-17T19:29:31.167Z,12.70
2022-10-17T19:32:00.568Z,13.40
2022-10-17T19:34:29.023Z,13.10
2022-10-17T19:36:57.240Z,13.60
2022-10-17T19:39:26.643Z,12.60
2022-10-17T19:41:54.773Z,12.30
2022-10-17T19:44:22.847Z,12.30
2022-10-17T19:46:50.886Z,12.80
2022-10-17T19:49:18.842Z,12.30
2022-10-17T19:51:46.883Z,13.30
2022-10-17T19:54:18.538Z,12.20
2022-10-17T19:56:47.308Z,13.10
2022-10-17T19:59:16.901Z,12.10
2022-10-17T20:01:46.462Z,11.50
2022-10-17T20:04:14.691Z,12.10
2022-10-17T20:06:42.769Z,11.50
2022-10-17T20:09:16.760Z,11.10
2022-10-17T20:11:45.859Z,11.30
2022-10-17T20:14:13.852Z,11.20
2022-10-17T20:16:44.921Z,12.00
2022-10-17T20:19:13.843Z,10.80
2022-10-17T20:21:42.852Z,10.90
2022-10-17T20:24:14.483Z,10.60
2022-10-17T20:26:43.023Z,10.50
2022-10-17T20:29:15.657Z,9.90
2022-10-17T20:31:45.915Z,10.00
2022-10-17T20:34:15.328Z,9.50
2022-10-17T20:36:43.933Z,10.50
2022-10-17T20:39:14.284Z,10.10
2022-10-17T20:41:43.576Z,10.40
2022-10-17T20:44:12.294Z,10.10
2022-10-17T20:46:45.236Z,10.10
2022-10-17T20:49:26.716Z,8.90
2022-10-17T20:51:54.792Z,8.70
2022-10-17T20:54:23.048Z,9.50
2022-10-17T20:56:51.557Z,9.40
2022-10-17T20:59:20.851Z,9.10
2022-10-17T21:01:49.065Z,9.30
2022-10-17T21:07:06.163Z,8.60
2022-10-17T21:09:34.313Z,9.50
2022-10-17T21:12:05.157Z,8.80
2022-10-17T21:14:33.646Z,8.10
2022-10-17T21:17:05.096Z,7.70
2022-10-17T21:19:33.958Z,7.70
2022-10-17T21:22:02.644Z,8.00
2022-10-17T21:24:31.001Z,8.00
2022-10-17T21:26:59.358Z,7.40
2022-10-17T21:29:27.756Z,8.20
2022-10-17T21:31:55.776Z,7.70
2022-10-17T21:34:25.157Z,7.70
2022-10-17T21:36:53.513Z,7.20
2022-10-17T21:39:24.210Z,7.10
2022-10-17T21:41:53.065Z,6.60
2022-10-17T21:44:24.307Z,6.80
2022-10-17T21:49:23.286Z,6.60
2022-10-17T21:51:52.813Z,6.80
2022-10-17T21:54:23.036Z,7.10
2022-10-17T21:56:51.772Z,6.50
2022-10-17T21:59:19.903Z,6.40
2022-10-17T22:01:48.050Z,7.60
2022-10-17T22:04:18.323Z,7.50
2022-10-17T22:06:48.462Z,7.00
2022-10-17T22:09:22.421Z,7.00
2022-10-17T22:11:53.501Z,6.70
2022-10-17T22:14:23.243Z,6.70
2022-10-17T22:16:51.790Z,6.10
2022-10-17T22:19:22.711Z,5.90
2022-10-17T22:26:49.823Z,7.30
2022-10-17T22:29:18.186Z,6.50
2022-10-17T22:31:46.552Z,5.50
2022-10-17T22:34:16.435Z,6.50
2022-10-17T22:36:44.940Z,6.60
2022-10-17T22:39:13.109Z,5.90
2022-10-17T22:41:41.354Z,5.10
2022-10-17T22:44:09.481Z,5.80
2022-10-17T22:46:37.684Z,5.80
2022-10-17T22:49:06.036Z,5.80
2022-10-17T22:51:34.116Z,5.50
2022-10-17T22:54:02.432Z,4.80
2022-10-17T22:56:30.659Z,5.40
2022-10-17T22:58:58.641Z,6.30
2022-10-17T23:01:26.882Z,5.80
2022-10-17T23:03:55.408Z,5.40
2022-10-17T23:06:23.623Z,5.60
2022-10-17T23:08:52.403Z,5.20
2022-10-17T23:11:21.087Z,5.30
2022-10-17T23:13:49.244Z,4.80
2022-10-17T23:16:17.526Z,4.90
2022-10-17T23:18:45.836Z,4.90
2022-10-17T23:21:13.815Z,5.20
2022-10-17T23:23:41.923Z,5.50
2022-10-17T23:26:13.168Z,4.90
2022-10-17T23:28:42.775Z,5.80
2022-10-17T23:31:16.939Z,4.90
2022-10-17T23:33:46.727Z,4.70
2022-10-17T23:36:17.985Z,4.80
2022-10-17T23:38:47.127Z,5.20
2022-10-17T23:41:15.736Z,4.50
2022-10-17T23:43:44.636Z,5.10
2022-10-17T23:46:12.915Z,6.00
2022-10-17T23:48:41.327Z,5.30
2022-10-17T23:51:10.788Z,5.20
2022-10-17T23:53:39.514Z,5.50
2022-10-17T23:56:08.710Z,5.20
2022-10-17T23:58:37.668Z,4.40
